createdAt,value
2023-03-05T00:02:19.724Z,4.97
2023-03-05T00:04:50.676Z,4.61
2023-03-05T00:07:20.898Z,4.76
2023-03-05T00:09:51.440Z,4.84
2023-03-05T00:12:24.119Z,4.74
2023-03-05T00:14:54.883Z,4.41
2023-03-05T00:17:25.850Z,4.53
2023-03-05T00:19:57.362Z,4.32
2023-03-05T00:22:28.350Z,4.69
2023-03-05T00:25:00.290Z,4.82
2023-03-05T00:27:32.286Z,4.74
2023-03-05T00:30:03.097Z,4.52
2023-03-05T00:32:36.022Z,4.30
2023-03-05T00:35:07.784Z,4.02
2023-03-05T00:37:38.328Z,4.54
2023-03-05T00:40:12.043Z,3.69
2023-03-05T00:42:45.757Z,4.45
2023-03-05T00:45:16.369Z,3.88
2023-03-05T00:47:46.816Z,4.39
2023-03-05T00:50:17.044Z,4.15
2023-03-05T00:52:47.517Z,3.65
2023-03-05T00:55:18.362Z,4.37
2023-03-05T00:57:50.281Z,4.03
2023-03-05T01:00:22.186Z,4.36
2023-03-05T01:02:52.907Z,3.80
2023-03-05T01:05:23.882Z,3.98
2023-03-05T01:07:55.733Z,4.00
2023-03-05T01:10:28.668Z,4.48
2023-03-05T01:13:01.558Z,4.01
2023-03-05T01:15:32.150Z,3.59
2023-03-05T01:18:03.327Z,3.74
2023-03-05T01:20:33.607Z,4.08
2023-03-05T01:23:04.169Z,3.66
2023-03-05T01:25:34.515Z,3.73
2023-03-05T01:28:06.968Z,3.85
2023-03-05T01:30:38.638Z,3.48
2023-03-05T01:33:08.852Z,3.93
2023-03-05T01:35:39.837Z,3.58
2023-03-05T01:38:10.481Z,3.34
2023-03-05T01:40:40.882Z,3.77
2023-03-05T01:43:27.596Z,3.73
2023-03-05T01:46:35.567Z,3.94
2023-03-05T01:49:18.840Z,4.08
2023-03-05T01:51:59.043Z,3.56
2023-03-05T01:54:34.082Z,3.61
2023-03-05T01:57:11.127Z,2.76
2023-03-05T01:59:44.929Z,3.55
2023-03-05T02:02:16.900Z,3.15
2023-03-05T02:04:52.580Z,3.07
2023-03-05T02:07:24.485Z,3.75
2023-03-05T02:09:54.852Z,3.70
2023-03-05T02:12:25.296Z,3.45
2023-03-05T02:14:59.648Z,3.67
2023-03-05T02:17:31.277Z,3.63
2023-03-05T02:20:07.569Z,3.66
2023-03-05T02:22:39.751Z,3.38
2023-03-05T02:25:17.883Z,3.47
2023-03-05T02:27:54.174Z,3.28
2023-03-05T02:30:24.982Z,3.24
2023-03-05T02:32:55.016Z,3.06
2023-03-05T02:35:25.194Z,3.47
2023-03-05T02:37:56.913Z,3.11
2023-03-05T02:40:26.925Z,3.60
2023-03-05T02:42:57.168Z,3.02
2023-03-05T02:45:27.595Z,3.17
2023-03-05T02:47:58.704Z,3.27
2023-03-05T02:50:31.999Z,3.16
2023-03-05T02:53:04.382Z,3.23
2023-03-05T02:55:35.175Z,3.29
2023-03-05T02:58:05.624Z,2.84
2023-03-05T03:00:38.419Z,3.42
2023-03-05T03:03:09.099Z,3.06
2023-03-05T03:05:40.173Z,2.92
2023-03-05T03:08:12.126Z,2.97
2023-03-05T03:10:42.532Z,2.71
2023-03-05T03:13:12.561Z,3.00
2023-03-05T03:15:43.602Z,2.64
2023-03-05T03:18:14.383Z,2.96
2023-03-05T03:20:45.381Z,2.79
2023-03-05T03:23:17.530Z,2.82
2023-03-05T03:25:47.658Z,3.17
2023-03-05T03:28:17.660Z,2.98
2023-03-05T03:30:47.740Z,3.20
2023-03-05T03:33:18.744Z,2.95
2023-03-05T03:35:49.333Z,2.72
2023-03-05T03:38:21.371Z,3.01
2023-03-05T03:40:51.920Z,2.75
2023-03-05T03:43:22.745Z,2.55
2023-03-05T03:45:52.817Z,2.91
2023-03-05T03:48:24.020Z,2.94
2023-03-05T03:50:53.966Z,2.65
2023-03-05T03:53:26.500Z,2.52
2023-03-05T03:56:00.870Z,3.32
2023-03-05T03:58:30.811Z,3.38
2023-03-05T04:01:01.762Z,2.99
2023-03-05T04:03:32.250Z,2.91
2023-03-05T04:06:02.728Z,3.20
2023-03-05T04:08:35.165Z,3.21
2023-03-05T04:11:05.675Z,2.97
2023-03-05T04:13:36.324Z,3.16
2023-03-05T04:16:08.255Z,2.69
2023-03-05T04:18:38.802Z,2.68
2023-03-05T04:21:09.396Z,2.08
2023-03-05T04:23:42.403Z,2.48
2023-03-05T04:26:13.097Z,2.60
2023-03-05T04:28:44.054Z,2.39
2023-03-05T04:31:15.318Z,2.52
2023-03-05T04:33:45.569Z,2.61
2023-03-05T04:36:15.870Z,2.31
2023-03-05T04:38:48.150Z,2.37
2023-03-05T04:41:18.619Z,2.86
2023-03-05T04:43:48.909Z,3.17
2023-03-05T04:46:18.800Z,2.75
2023-03-05T04:48:49.076Z,2.89
2023-03-05T04:51:19.405Z,2.94
2023-03-05T04:53:50.492Z,3.32
2023-03-05T04:56:20.777Z,3.24
2023-03-05T04:58:52.002Z,2.82
2023-03-05T05:01:22.762Z,2.84
2023-03-05T05:03:53.235Z,2.31
2023-03-05T05:06:23.555Z,2.83
2023-03-05T05:08:56.082Z,2.99
2023-03-05T05:11:26.928Z,2.68
2023-03-05T05:13:57.186Z,2.61
2023-03-05T05:16:27.469Z,2.76
2023-03-05T05:18:57.826Z,3.00
2023-03-05T05:21:28.141Z,2.48
2023-03-05T05:24:00.985Z,2.42
2023-03-05T05:26:31.355Z,3.03
2023-03-05T05:29:01.391Z,3.14
2023-03-05T05:31:32.231Z,2.90
2023-03-05T05:34:03.824Z,3.28
2023-03-05T05:36:34.391Z,2.90
2023-03-05T05:39:07.052Z,3.05
2023-03-05T05:41:37.561Z,2.46
2023-03-05T05:44:08.491Z,3.15
2023-03-05T05:46:39.017Z,2.85
2023-03-05T05:49:09.641Z,2.38
2023-03-05T05:51:40.160Z,3.32
2023-03-05T05:54:14.636Z,2.64
2023-03-05T05:56:45.276Z,2.41
2023-03-05T05:59:16.405Z,3.40
2023-03-05T06:01:47.043Z,3.24
2023-03-05T06:04:18.268Z,3.07
2023-03-05T06:06:48.741Z,2.23
2023-03-05T06:09:20.450Z,3.15
2023-03-05T06:11:50.624Z,3.07
2023-03-05T06:14:21.014Z,2.79
2023-03-05T06:16:51.581Z,3.25
2023-03-05T06:19:22.589Z,3.54
2023-03-05T06:21:53.335Z,3.42
2023-03-05T06:24:25.436Z,2.77
2023-03-05T06:26:55.906Z,2.93
2023-03-05T06:29:26.011Z,2.73
2023-03-05T06:31:56.537Z,3.11
2023-03-05T06:34:26.789Z,3.24
2023-03-05T06:36:57.704Z,3.19
2023-03-05T06:39:31.155Z,3.24
2023-03-05T06:42:02.185Z,2.78
2023-03-05T06:44:32.304Z,3.21
2023-03-05T06:47:03.604Z,3.22
2023-03-05T06:49:33.570Z,3.63
2023-03-05T06:52:04.209Z,3.60
2023-03-05T06:54:36.447Z,3.67
2023-03-05T06:57:07.464Z,3.63
2023-03-05T06:59:37.994Z,3.01
2023-03-05T07:02:10.752Z,3.03
2023-03-05T07:04:41.143Z,3.41
2023-03-05T07:07:11.630Z,3.95
2023-03-05T07:09:46.289Z,4.09
2023-03-05T07:12:16.293Z,4.15
2023-03-05T07:14:47.105Z,4.07
2023-03-05T07:17:17.384Z,3.94
2023-03-05T07:19:47.717Z,4.20
2023-03-05T07:22:18.909Z,4.02
2023-03-05T07:24:51.427Z,4.25
2023-03-05T07:27:23.708Z,4.04
2023-03-05T07:29:53.937Z,4.17
2023-03-05T07:32:24.311Z,3.44
2023-03-05T07:34:54.386Z,4.19
2023-03-05T07:37:24.849Z,4.06
2023-03-05T07:39:56.798Z,3.47
2023-03-05T07:42:28.015Z,4.36
2023-03-05T07:44:59.461Z,4.16
2023-03-05T07:47:31.310Z,3.91
2023-03-05T07:50:01.989Z,4.35
2023-03-05T07:52:32.864Z,3.55
2023-03-05T07:55:04.333Z,4.18
2023-03-05T07:57:35.886Z,4.02
2023-03-05T08:00:08.056Z,4.23
2023-03-05T08:02:39.520Z,4.53
2023-03-05T08:05:10.389Z,4.47
2023-03-05T08:07:41.216Z,4.29
2023-03-05T08:10:14.035Z,4.63
2023-03-05T08:12:44.566Z,4.65
2023-03-05T08:15:15.065Z,4.80
2023-03-05T08:17:46.953Z,4.67
2023-03-05T08:20:17.090Z,4.58
2023-03-05T08:22:47.990Z,4.66
2023-03-05T08:25:20.719Z,3.91
2023-03-05T08:27:51.446Z,4.22
2023-03-05T08:30:27.563Z,4.13
2023-03-05T08:32:59.259Z,4.20
2023-03-05T08:35:30.098Z,4.56
2023-03-05T08:38:02.951Z,4.49
2023-03-05T08:40:35.560Z,4.44
2023-03-05T08:43:07.622Z,4.22
2023-03-05T08:45:37.509Z,4.50
2023-03-05T08:48:09.859Z,4.38
2023-03-05T08:50:42.256Z,4.72
2023-03-05T08:53:13.072Z,4.79
2023-03-05T08:55:45.423Z,4.70
2023-03-05T08:58:16.176Z,4.78
2023-03-05T09:00:48.801Z,5.00
2023-03-05T09:03:23.307Z,4.61
2023-03-05T09:05:53.633Z,5.02
2023-03-05T09:08:25.471Z,5.32
2023-03-05T09:10:58.537Z,5.22
2023-03-05T09:13:30.968Z,5.40
2023-03-05T09:16:03.354Z,5.70
2023-03-05T09:18:36.978Z,5.42
2023-03-05T09:21:08.737Z,5.33
2023-03-05T09:23:40.120Z,5.32
2023-03-05T09:26:13.731Z,5.74
2023-03-05T09:28:45.271Z,5.76
2023-03-05T09:31:17.011Z,5.69
2023-03-05T09:33:48.698Z,6.17
2023-03-05T09:36:25.634Z,5.90
2023-03-05T09:38:56.500Z,6.19
2023-03-05T09:41:38.029Z,5.90
2023-03-05T09:44:15.819Z,5.81
2023-03-05T09:46:53.814Z,6.02
2023-03-05T09:49:33.624Z,6.34
2023-03-05T09:52:09.357Z,6.39
2023-03-05T09:54:41.780Z,6.72
2023-03-05T09:57:19.065Z,6.58
2023-03-05T09:59:52.335Z,6.86
2023-03-05T10:02:28.430Z,6.65
2023-03-05T10:05:04.908Z,6.88
2023-03-05T10:07:39.096Z,6.84
2023-03-05T10:10:14.691Z,7.18
2023-03-05T10:12:47.981Z,7.50
2023-03-05T10:15:25.255Z,7.49
2023-03-05T10:18:13.047Z,7.38
2023-03-05T10:21:01.997Z,7.55
2023-03-05T10:23:52.612Z,7.72
2023-03-05T10:26:56.682Z,8.11
2023-03-05T10:30:03.153Z,8.30
2023-03-05T10:32:44.978Z,8.55
2023-03-05T10:35:31.288Z,8.93
2023-03-05T10:38:38.309Z,8.86
2023-03-05T10:41:18.478Z,8.75
2023-03-05T10:43:53.399Z,8.97
2023-03-05T10:46:26.615Z,8.65
2023-03-05T10:49:03.184Z,8.55
2023-03-05T10:51:38.613Z,8.80
2023-03-05T10:54:17.294Z,9.09
2023-03-05T10:56:48.169Z,9.21
2023-03-05T10:59:19.416Z,9.23
2023-03-05T11:02:05.558Z,9.12
2023-03-05T11:04:39.922Z,9.63
2023-03-05T11:07:26.622Z,9.67
2023-03-05T11:10:07.915Z,9.71
2023-03-05T11:12:50.877Z,10.05
2023-03-05T11:15:33.793Z,9.86
2023-03-05T11:18:32.376Z,10.49
2023-03-05T11:21:21.866Z,10.83
2023-03-05T11:24:14.452Z,10.21
2023-03-05T11:26:53.620Z,10.52
2023-03-05T11:29:27.683Z,10.80
2023-03-05T11:31:59.806Z,10.96
2023-03-05T11:34:36.635Z,10.63
2023-03-05T11:37:12.566Z,10.96
2023-03-05T11:39:43.634Z,10.80
2023-03-05T11:42:17.672Z,10.81
2023-03-05T11:44:50.547Z,10.82
2023-03-05T11:47:26.643Z,10.81
2023-03-05T11:50:02.488Z,11.13
2023-03-05T11:52:50.461Z,10.72
2023-03-05T11:55:23.243Z,11.58
2023-03-05T11:58:03.894Z,11.13
2023-03-05T12:00:36.059Z,11.27
2023-03-05T12:03:11.855Z,11.04
2023-03-05T12:05:43.583Z,11.08
2023-03-05T12:08:20.693Z,10.78
2023-03-05T12:10:53.539Z,10.51
2023-03-05T12:13:30.980Z,10.86
2023-03-05T12:16:11.044Z,10.84
2023-03-05T12:18:53.692Z,10.83
2023-03-05T12:21:37.114Z,10.68
2023-03-05T12:24:39.921Z,11.20
2023-03-05T12:27:18.734Z,10.65
2023-03-05T12:29:51.215Z,10.38
2023-03-05T12:33:04.228Z,10.38
2023-03-05T12:35:39.899Z,10.71
2023-03-05T12:38:32.475Z,10.87
2023-03-05T12:41:40.514Z,11.96
2023-03-05T12:44:21.361Z,12.08
2023-03-05T12:47:23.927Z,11.84
2023-03-05T12:49:56.966Z,11.99
2023-03-05T12:52:31.974Z,12.87
2023-03-05T12:55:17.708Z,12.59
2023-03-05T12:57:55.902Z,12.41
2023-03-05T13:00:33.795Z,12.46
2023-03-05T13:03:11.965Z,12.64
2023-03-05T13:05:49.870Z,12.28
2023-03-05T13:08:25.867Z,12.21
2023-03-05T13:10:57.547Z,12.35
2023-03-05T13:13:31.708Z,12.65
2023-03-05T13:16:01.634Z,12.96
2023-03-05T13:18:33.538Z,12.78
2023-03-05T13:21:06.512Z,12.76
2023-03-05T13:23:37.857Z,12.94
2023-03-05T13:26:16.978Z,12.85
2023-03-05T13:29:07.155Z,13.41
2023-03-05T13:31:41.509Z,13.52
2023-03-05T13:34:17.990Z,13.24
2023-03-05T13:36:51.752Z,12.77
2023-03-05T13:39:26.332Z,13.30
2023-03-05T13:42:03.820Z,13.50
2023-03-05T13:44:39.253Z,13.43
2023-03-05T13:47:12.059Z,13.99
2023-03-05T13:50:01.174Z,13.32
2023-03-05T13:52:35.582Z,13.53
2023-03-05T13:55:14.726Z,13.72
2023-03-05T13:57:47.887Z,13.77
2023-03-05T14:00:33.566Z,13.69
2023-03-05T14:03:13.703Z,13.16
2023-03-05T14:05:47.390Z,12.89
2023-03-05T14:08:22.938Z,12.85
2023-03-05T14:10:54.138Z,13.39
2023-03-05T14:13:28.779Z,13.22
2023-03-05T14:16:15.080Z,12.56
2023-03-05T14:18:56.714Z,12.29
2023-03-05T14:21:28.999Z,12.56
2023-03-05T14:24:00.133Z,12.82
2023-03-05T14:26:33.698Z,12.11
2023-03-05T14:29:06.115Z,12.02
2023-03-05T14:31:49.656Z,11.85
2023-03-05T14:34:25.388Z,11.96
2023-03-05T14:36:59.494Z,11.71
2023-03-05T14:39:33.709Z,11.81
2023-03-05T14:42:33.319Z,11.72
2023-03-05T14:45:13.884Z,11.56
2023-03-05T14:47:46.509Z,11.60
2023-03-05T14:50:18.830Z,11.85
2023-03-05T14:52:50.306Z,11.55
2023-03-05T14:55:24.438Z,11.58
2023-03-05T14:57:56.260Z,11.67
2023-03-05T15:00:28.670Z,11.87
2023-03-05T15:03:01.099Z,11.92
2023-03-05T15:05:32.435Z,11.43
2023-03-05T15:08:02.954Z,11.57
2023-03-05T15:10:34.009Z,11.33
2023-03-05T15:13:04.706Z,11.40
2023-03-05T15:15:35.867Z,11.37
2023-03-05T15:18:07.944Z,11.05
2023-03-05T15:20:40.466Z,10.93
2023-03-05T15:23:13.001Z,11.03
2023-03-05T15:25:44.925Z,10.90
2023-03-05T15:28:16.075Z,10.99
2023-03-05T15:30:49.376Z,10.90
2023-03-05T15:33:23.984Z,10.79
2023-03-05T15:35:54.586Z,10.68
2023-03-05T15:38:26.441Z,10.34
2023-03-05T15:40:58.527Z,10.62
2023-03-05T15:43:30.877Z,10.47
2023-03-05T15:46:01.809Z,10.51
2023-03-05T15:48:34.477Z,10.30
2023-03-05T15:51:08.065Z,10.30
2023-03-05T15:53:38.920Z,10.18
2023-03-05T15:56:10.363Z,10.57
2023-03-05T15:58:41.191Z,10.03
2023-03-05T16:01:11.992Z,10.17
2023-03-05T16:03:44.617Z,10.54
2023-03-05T16:06:16.611Z,10.26
2023-03-05T16:08:47.252Z,9.91
2023-03-05T16:11:18.729Z,10.07
2023-03-05T16:13:48.424Z,9.94
2023-03-05T16:16:19.250Z,9.98
2023-03-05T16:18:50.861Z,10.02
2023-03-05T16:21:21.792Z,9.50
2023-03-05T16:23:52.035Z,9.52
2023-03-05T16:26:22.395Z,9.44
2023-03-05T16:28:52.561Z,9.21
2023-03-05T16:31:23.478Z,9.50
2023-03-05T16:33:55.813Z,9.05
2023-03-05T16:36:28.361Z,9.30
2023-03-05T16:39:00.699Z,9.09
2023-03-05T16:41:30.900Z,9.06
2023-03-05T16:44:01.580Z,8.92
2023-03-05T16:46:34.980Z,8.97
2023-03-05T16:49:09.293Z,9.13
2023-03-05T16:51:41.548Z,9.17
2023-03-05T16:54:12.302Z,9.10
2023-03-05T16:56:42.733Z,9.07
2023-03-05T16:59:13.803Z,8.95
2023-03-05T17:01:45.471Z,9.09
2023-03-05T17:04:17.829Z,8.79
2023-03-05T17:06:49.506Z,8.74
2023-03-05T17:09:24.530Z,8.72
2023-03-05T17:11:54.566Z,8.50
2023-03-05T17:14:28.924Z,8.51
2023-03-05T17:17:01.975Z,8.41
2023-03-05T17:19:33.968Z,8.30
2023-03-05T17:22:04.619Z,8.37
2023-03-05T17:24:35.710Z,8.24
2023-03-05T17:27:05.524Z,8.21
2023-03-05T17:29:35.930Z,8.02
2023-03-05T17:32:06.736Z,7.91
2023-03-05T17:34:38.855Z,7.98
2023-03-05T17:37:09.429Z,7.76
2023-03-05T17:39:41.381Z,8.04
2023-03-05T17:42:11.284Z,7.88
2023-03-05T17:44:41.516Z,7.73
2023-03-05T17:47:21.295Z,7.47
2023-03-05T17:49:53.072Z,7.90
2023-03-05T17:52:23.095Z,7.88
2023-03-05T17:54:55.041Z,7.77
2023-03-05T17:57:25.582Z,7.93
2023-03-05T17:59:55.892Z,7.70
2023-03-05T18:02:26.364Z,7.55
2023-03-05T18:04:59.211Z,7.66
2023-03-05T18:07:30.281Z,7.44
2023-03-05T18:10:01.096Z,7.51
2023-03-05T18:12:31.321Z,7.51
2023-03-05T18:15:02.732Z,7.51
2023-03-05T18:17:33.977Z,7.34
2023-03-05T18:20:07.696Z,7.44
2023-03-05T18:22:37.833Z,7.39
2023-03-05T18:25:09.556Z,7.28
2023-03-05T18:27:40.846Z,7.26
2023-03-05T18:30:13.560Z,7.21
2023-03-05T18:32:45.545Z,7.25
2023-03-05T18:35:18.241Z,7.17
2023-03-05T18:37:48.420Z,7.03
2023-03-05T18:40:20.394Z,6.93
2023-03-05T18:42:52.618Z,7.38
2023-03-05T18:45:23.962Z,7.14
2023-03-05T18:47:54.590Z,7.28
2023-03-05T18:50:28.677Z,7.36
2023-03-05T18:53:01.381Z,7.60
2023-03-05T18:55:32.736Z,7.71
2023-03-05T18:58:03.327Z,7.61
2023-03-05T19:00:35.840Z,7.56
2023-03-05T19:03:07.587Z,7.42
2023-03-05T19:05:39.537Z,7.63
2023-03-05T19:08:09.560Z,7.57
2023-03-05T19:10:40.465Z,7.68
2023-03-05T19:13:23.233Z,7.60
2023-03-05T19:15:54.288Z,7.33
2023-03-05T19:18:49.907Z,7.72
2023-03-05T19:21:21.966Z,7.75
2023-03-05T19:23:52.604Z,7.63
2023-03-05T19:26:23.130Z,7.47
2023-03-05T19:28:53.596Z,7.53
2023-03-05T19:31:24.579Z,7.56
2023-03-05T19:33:55.658Z,7.41
2023-03-05T19:36:28.835Z,7.55
2023-03-05T19:39:00.539Z,7.34
2023-03-05T19:41:32.328Z,7.25
2023-03-05T19:44:02.862Z,7.51
2023-03-05T19:46:34.873Z,7.18
2023-03-05T19:49:06.221Z,7.18
2023-03-05T19:51:40.175Z,7.45
2023-03-05T19:54:10.385Z,7.31
2023-03-05T19:56:41.479Z,7.16
2023-03-05T19:59:11.957Z,7.34
2023-03-05T20:01:42.849Z,7.26
2023-03-05T20:04:16.365Z,7.33
2023-03-05T20:06:48.793Z,7.17
2023-03-05T20:09:20.375Z,7.49
2023-03-05T20:11:51.933Z,7.40
2023-03-05T20:14:22.090Z,7.27
2023-03-05T20:16:53.388Z,7.22
2023-03-05T20:19:23.872Z,7.15
2023-03-05T20:21:56.090Z,7.19
2023-03-05T20:24:26.643Z,7.12
2023-03-05T20:26:57.562Z,7.19
2023-03-05T20:29:27.946Z,7.17
2023-03-05T20:32:00.442Z,7.18
2023-03-05T20:34:31.762Z,7.16
2023-03-05T20:37:05.261Z,7.11
2023-03-05T20:39:36.384Z,7.19
2023-03-05T20:42:06.644Z,7.22
2023-03-05T20:44:36.927Z,7.19
2023-03-05T20:47:49.037Z,7.19
2023-03-05T20:50:22.217Z,7.20
2023-03-05T20:52:55.053Z,7.32
2023-03-05T20:55:29.154Z,7.36
2023-03-05T20:58:00.128Z,6.92
2023-03-05T21:00:31.876Z,7.19
2023-03-05T21:03:03.236Z,7.03
2023-03-05T21:05:34.809Z,7.08
2023-03-05T21:08:07.387Z,6.87
2023-03-05T21:10:39.286Z,6.91
2023-03-05T21:13:09.704Z,6.96
2023-03-05T21:15:43.402Z,7.02
2023-03-05T21:18:14.350Z,6.92
2023-03-05T21:20:45.043Z,6.91
2023-03-05T21:23:17.859Z,6.75
2023-03-05T21:25:48.853Z,6.69
2023-03-05T21:28:19.273Z,6.86
2023-03-05T21:30:52.418Z,7.00
2023-03-05T21:33:24.317Z,6.73
2023-03-05T21:35:56.841Z,6.75
2023-03-05T21:38:30.660Z,6.74
2023-03-05T21:41:02.404Z,6.91
2023-03-05T21:43:33.624Z,6.79
2023-03-05T21:46:04.813Z,6.91
2023-03-05T21:48:35.551Z,6.75
2023-03-05T21:51:23.497Z,7.15
2023-03-05T21:53:54.971Z,6.91
2023-03-05T21:56:25.598Z,6.76
2023-03-05T21:58:55.883Z,6.90
2023-03-05T22:01:27.200Z,6.81
2023-03-05T22:03:57.627Z,6.98
2023-03-05T22:06:27.774Z,6.96
2023-03-05T22:09:01.620Z,6.84
2023-03-05T22:11:32.728Z,6.73
2023-03-05T22:14:04.487Z,6.89
2023-03-05T22:16:35.000Z,6.89
2023-03-05T22:19:05.633Z,6.91
2023-03-05T22:21:36.287Z,6.74
2023-03-05T22:24:09.856Z,7.01
2023-03-05T22:26:40.937Z,7.04
2023-03-05T22:29:20.888Z,6.82
2023-03-05T22:31:50.616Z,6.87
2023-03-05T22:34:21.326Z,6.69
2023-03-05T22:36:52.264Z,6.59
2023-03-05T22:39:26.610Z,6.74
2023-03-05T22:41:57.447Z,6.71
2023-03-05T22:44:28.641Z,6.76
2023-03-05T22:46:59.470Z,6.85
2023-03-05T22:49:29.784Z,6.99
2023-03-05T22:52:00.757Z,6.78
2023-03-05T22:54:34.749Z,6.58
2023-03-05T22:57:05.542Z,6.85
2023-03-05T22:59:36.173Z,6.58
2023-03-05T23:02:07.873Z,6.57
2023-03-05T23:04:49.490Z,6.77
2023-03-05T23:07:22.189Z,6.96
2023-03-05T23:09:59.536Z,6.57
2023-03-05T23:12:31.860Z,6.53
2023-03-05T23:15:03.879Z,6.58
2023-03-05T23:17:34.404Z,6.54
2023-03-05T23:20:08.677Z,6.52
2023-03-05T23:22:38.509Z,6.83
2023-03-05T23:25:12.257Z,6.63
2023-03-05T23:27:43.412Z,6.67
2023-03-05T23:30:20.590Z,6.77
2023-03-05T23:32:53.701Z,6.66
2023-03-05T23:35:26.744Z,6.46
2023-03-05T23:37:58.068Z,6.40
2023-03-05T23:40:32.910Z,6.41
2023-03-05T23:43:02.898Z,6.64
2023-03-05T23:45:33.093Z,6.40
2023-03-05T23:48:03.688Z,6.53
2023-03-05T23:50:36.642Z,6.48
2023-03-05T23:53:08.132Z,6.49
2023-03-05T23:55:43.322Z,6.43
2023-03-05T23:58:14.963Z,6.43
